Time;durP1;ratioP1;P1;durP2;ratioP2;P2;SDS_P1;SDS_P2;PMS_P1;PMS_P2;Temp;Humidity;BMP_temperature;BMP_pressure;BME280_temperature;BME280_humidity;BME280_pressure;Samples;Min_cycle;Max_cycle;Signal;HPM_P1;HPM_P2
2023/07/08 00:00:38;;;;;;;3.55;3.25;;;;;;;20.40;65.53;102124.41;6140027;28;20238;-70
2023/07/08 00:03:59;;;;;;;6.57;4.28;;;;;;;20.42;65.87;102113.31;6144314;28;20235;-70
2023/07/08 00:07:22;;;;;;;5.47;4.35;;;;;;;20.34;65.63;102116.03;6140203;28;20548;-70
2023/07/08 00:10:44;;;;;;;6.00;4.32;;;;;;;20.27;66.21;102110.38;6137190;28;20260;-71
2023/07/08 00:14:05;;;;;;;5.97;4.03;;;;;;;20.23;66.56;102103.53;6144069;28;20629;-70
2023/07/08 00:17:26;;;;;;;4.68;4.28;;;;;;;20.04;66.87;102109.25;6138847;28;20333;-70
2023/07/08 00:20:49;;;;;;;4.82;4.35;;;;;;;20.20;67.21;102097.50;6143898;28;22033;-69
2023/07/08 00:24:10;;;;;;;7.75;4.57;;;;;;;20.10;67.28;102102.25;6145610;28;20520;-70
2023/07/08 00:27:32;;;;;;;6.75;4.30;;;;;;;20.06;67.24;102104.47;6143677;28;20226;-70
2023/07/08 00:30:54;;;;;;;7.80;4.20;;;;;;;20.05;67.08;102094.53;6143520;28;20234;-71
2023/07/08 00:34:15;;;;;;;5.07;4.22;;;;;;;20.06;67.46;102099.00;6113200;28;20606;-71
2023/07/08 00:37:36;;;;;;;5.05;3.97;;;;;;;19.99;67.65;102095.22;6138701;28;20246;-70
2023/07/08 00:41:05;;;;;;;5.97;4.13;;;;;;;19.95;67.57;102099.31;6152958;28;20235;-71
2023/07/08 00:44:27;;;;;;;4.18;3.88;;;;;;;19.84;67.84;102100.47;6141455;28;20238;-70
2023/07/08 00:47:50;;;;;;;6.07;3.90;;;;;;;19.84;68.02;102099.59;6154439;28;20246;-71
2023/07/08 00:51:12;;;;;;;6.95;3.47;;;;;;;19.88;67.97;102101.00;6103432;28;20633;-70
2023/07/08 00:54:32;;;;;;;5.13;4.28;;;;;;;19.86;68.15;102097.56;6128147;28;20238;-71
2023/07/08 00:57:53;;;;;;;3.42;3.15;;;;;;;19.71;68.64;102091.88;6135882;28;20231;-70
2023/07/08 01:01:16;;;;;;;4.43;3.97;;;;;;;19.59;68.80;102078.66;6147345;28;20691;-70
2023/07/08 01:04:42;;;;;;;4.45;3.83;;;;;;;19.53;69.13;102082.91;6137196;28;20229;-70
2023/07/08 01:08:06;;;;;;;4.95;4.32;;;;;;;19.61;69.21;102085.69;6151467;28;20553;-70
2023/07/08 01:11:27;;;;;;;5.05;4.28;;;;;;;19.55;69.41;102085.47;6144463;28;20228;-70
2023/07/08 01:14:49;;;;;;;4.32;3.92;;;;;;;19.45;69.84;102087.50;6126868;28;20313;-70
2023/07/08 01:18:13;;;;;;;4.75;3.67;;;;;;;19.30;70.29;102075.41;6142680;28;20258;-71
2023/07/08 01:21:36;;;;;;;5.18;4.35;;;;;;;19.45;70.23;102082.03;6141605;28;20677;-70
2023/07/08 01:25:03;;;;;;;7.80;3.95;;;;;;;19.38;69.94;102073.63;6145353;28;20229;-70
2023/07/08 01:28:26;;;;;;;4.80;3.65;;;;;;;19.36;70.05;102080.28;6141499;28;20669;-69
2023/07/08 01:31:48;;;;;;;4.32;3.78;;;;;;;19.37;70.58;102077.38;6127924;28;20239;-70
2023/07/08 01:35:12;;;;;;;4.28;3.70;;;;;;;19.40;70.22;102066.09;6137274;28;20219;-70
2023/07/08 01:38:34;;;;;;;3.38;3.08;;;;;;;19.34;70.75;102063.19;6143804;28;20230;-70
2023/07/08 01:41:57;;;;;;;5.30;3.45;;;;;;;19.39;70.54;102063.53;6139347;28;20231;-70
2023/07/08 01:45:23;;;;;;;3.90;3.38;;;;;;;19.26;70.72;102065.81;6144269;28;20668;-70
2023/07/08 01:48:48;;;;;;;3.95;3.65;;;;;;;19.15;71.22;102062.34;6141012;28;20313;-70
2023/07/08 01:52:13;;;;;;;4.10;3.65;;;;;;;19.14;71.38;102071.59;6143248;28;20242;-70
2023/07/08 01:55:33;;;;;;;5.68;3.63;;;;;;;18.90;71.33;102068.69;6136013;28;20241;-70
2023/07/08 01:58:55;;;;;;;9.70;4.18;;;;;;;18.70;71.46;102069.06;6129119;28;20304;-70
2023/07/08 02:02:17;;;;;;;4.63;3.92;;;;;;;18.90;71.63;102068.69;6146654;28;20250;-69
2023/07/08 02:05:38;;;;;;;4.57;4.05;;;;;;;18.96;71.72;102069.94;6132271;28;20238;-70
2023/07/08 02:08:59;;;;;;;4.30;3.83;;;;;;;19.03;71.29;102071.00;6124855;28;20226;-70
2023/07/08 02:12:20;;;;;;;5.50;4.07;;;;;;;18.96;71.53;102061.75;6133241;28;20645;-69
2023/07/08 02:15:42;;;;;;;4.80;3.65;;;;;;;18.99;71.58;102055.94;6110882;28;20231;-70
2023/07/08 02:19:03;;;;;;;5.53;4.15;;;;;;;18.78;72.15;102058.19;6111553;28;20230;-70
2023/07/08 02:22:25;;;;;;;4.68;4.20;;;;;;;18.72;72.23;102059.72;6129598;28;20261;-70
2023/07/08 02:25:52;;;;;;;3.95;3.58;;;;;;;18.64;72.46;102059.66;6143363;28;20605;-69
2023/07/08 02:29:13;;;;;;;4.22;3.63;;;;;;;18.67;72.60;102059.31;6140779;28;20222;-70
2023/07/08 02:32:38;;;;;;;4.93;4.00;;;;;;;18.69;72.70;102056.44;6140304;28;20222;-71
2023/07/08 02:36:01;;;;;;;5.35;4.30;;;;;;;18.81;72.56;102052.44;6136653;28;20324;-69
2023/07/08 02:39:22;;;;;;;4.05;3.65;;;;;;;18.78;72.63;102058.19;6133494;28;20545;-69
2023/07/08 02:42:43;;;;;;;6.93;4.13;;;;;;;18.69;72.55;102059.19;6143257;28;20239;-71
2023/07/08 02:46:05;;;;;;;3.97;3.63;;;;;;;18.59;72.71;102055.66;6132317;28;20239;-70
2023/07/08 02:49:27;;;;;;;4.80;4.40;;;;;;;18.53;73.08;102062.63;6137550;28;20611;-69
2023/07/08 02:52:48;;;;;;;3.83;3.45;;;;;;;18.58;73.31;102064.88;6141951;28;22302;-70
2023/07/08 02:56:09;;;;;;;4.93;3.75;;;;;;;18.65;72.95;102068.72;6136342;28;20222;-70
2023/07/08 02:59:30;;;;;;;5.28;3.72;;;;;;;18.66;72.49;102071.28;6134900;28;20239;-70
2023/07/08 03:02:50;;;;;;;5.13;4.68;;;;;;;18.60;72.90;102062.84;6141402;28;20225;-70
2023/07/08 03:06:13;;;;;;;4.40;4.00;;;;;;;18.54;72.82;102074.41;6123911;28;20258;-70
2023/07/08 03:09:34;;;;;;;5.93;4.13;;;;;;;18.58;72.84;102071.22;6134979;28;20234;-69
2023/07/08 03:12:55;;;;;;;6.10;4.05;;;;;;;18.61;72.86;102070.88;6135109;28;20330;-69
2023/07/08 03:16:17;;;;;;;4.72;4.18;;;;;;;18.49;72.93;102065.84;6117911;28;20235;-70
2023/07/08 03:19:38;;;;;;;5.88;4.50;;;;;;;18.42;73.19;102072.94;6138982;28;20272;-70
2023/07/08 03:23:00;;;;;;;5.13;4.05;;;;;;;18.45;73.57;102062.56;6142822;28;20223;-70
2023/07/08 03:26:23;;;;;;;4.40;3.42;;;;;;;18.33;73.45;102066.53;6136105;28;20707;-70
2023/07/08 03:29:45;;;;;;;4.38;3.97;;;;;;;18.49;73.36;102066.69;6132554;28;20238;-71
2023/07/08 03:33:07;;;;;;;5.53;3.42;;;;;;;18.60;73.45;102074.66;6142802;28;20238;-70
2023/07/08 03:36:28;;;;;;;5.53;3.92;;;;;;;18.59;73.25;102072.06;6125400;28;20269;-70
2023/07/08 03:39:50;;;;;;;3.55;3.25;;;;;;;18.55;73.13;102063.31;6133296;28;20230;-71
2023/07/08 03:43:11;;;;;;;6.18;3.65;;;;;;;18.74;72.95;102062.25;6149684;28;20234;-70
2023/07/08 03:46:32;;;;;;;5.68;5.10;;;;;;;18.73;72.53;102055.94;6160223;28;20237;-70
2023/07/08 03:49:53;;;;;;;3.85;3.55;;;;;;;18.61;72.69;102053.66;6128924;28;20222;-70
2023/07/08 03:53:15;;;;;;;4.60;3.70;;;;;;;18.55;72.85;102060.59;6153041;28;20246;-70
2023/07/08 03:56:38;;;;;;;6.10;4.38;;;;;;;18.84;72.21;102055.69;6145938;28;20267;-69
2023/07/08 03:59:59;;;;;;;4.47;3.17;;;;;;;18.93;71.69;102062.06;6124231;28;20394;-70
2023/07/08 04:03:21;;;;;;;3.50;3.20;;;;;;;18.98;71.06;102056.97;6146998;28;20223;-69
2023/07/08 04:06:41;;;;;;;4.78;3.72;;;;;;;18.96;71.57;102053.56;6146525;28;20235;-71
2023/07/08 04:10:02;;;;;;;8.43;3.08;;;;;;;19.17;70.92;102054.00;6115761;28;20617;-70
2023/07/08 04:13:25;;;;;;;3.72;3.42;;;;;;;19.28;70.01;102052.84;6142585;28;20322;-70
2023/07/08 04:16:51;;;;;;;3.45;3.13;;;;;;;19.34;69.44;102055.81;6137991;28;20243;-70
2023/07/08 04:20:15;;;;;;;4.55;3.30;;;;;;;19.36;69.07;102053.78;6137874;28;20229;-70
2023/07/08 04:23:36;;;;;;;3.38;2.70;;;;;;;19.46;68.80;102057.22;6149782;28;20234;-69
2023/07/08 04:26:57;;;;;;;4.45;4.03;;;;;;;19.53;68.86;102061.03;6154023;28;20608;-70
2023/07/08 04:30:24;;;;;;;3.25;2.95;;;;;;;19.45;68.49;102055.53;6134442;28;20275;-69
2023/07/08 04:33:45;;;;;;;11.60;4.28;;;;;;;19.56;67.91;102052.50;6128770;28;20247;-70
2023/07/08 04:37:06;;;;;;;5.03;3.40;;;;;;;19.71;67.76;102050.00;6120533;28;20239;-72
2023/07/08 04:40:27;;;;;;;3.78;2.97;;;;;;;19.79;67.42;102050.00;6122517;28;20230;-71
2023/07/08 04:43:52;;;;;;;3.45;3.17;;;;;;;19.71;67.42;102053.56;6141716;28;20250;-72
2023/07/08 04:47:14;;;;;;;3.97;3.65;;;;;;;19.76;67.07;102051.19;6145285;28;20253;-71
2023/07/08 04:50:35;;;;;;;4.03;3.63;;;;;;;19.77;67.32;102052.91;6137245;28;20230;-72
2023/07/08 04:53:56;;;;;;;2.85;2.58;;;;;;;19.84;66.96;102053.94;6137056;28;20230;-72
2023/07/08 04:57:17;;;;;;;3.38;2.50;;;;;;;20.06;66.83;102052.44;6126414;28;20239;-72
2023/07/08 05:00:38;;;;;;;3.22;3.00;;;;;;;20.17;66.14;102060.31;6140999;28;20249;-71
2023/07/08 05:04:00;;;;;;;3.70;2.88;;;;;;;20.31;65.77;102050.63;6158073;28;20230;-70
2023/07/08 05:07:21;;;;;;;6.15;2.70;;;;;;;20.36;65.26;102053.72;6148349;28;20247;-71
2023/07/08 05:10:42;;;;;;;3.60;2.47;;;;;;;20.41;64.82;102043.09;6144197;28;20508;-71
2023/07/08 05:14:04;;;;;;;3.78;2.70;;;;;;;20.52;64.77;102043.59;6151973;28;20238;-72
2023/07/08 05:17:26;;;;;;;4.28;2.67;;;;;;;20.68;64.38;102046.31;6129662;28;20234;-72
2023/07/08 05:20:52;;;;;;;2.42;2.22;;;;;;;20.87;64.26;102049.72;6133918;28;20234;-72
2023/07/08 05:24:13;;;;;;;6.60;3.20;;;;;;;20.96;63.60;102045.94;6144017;28;20242;-70
2023/07/08 05:27:34;;;;;;;3.30;2.88;;;;;;;20.89;63.39;102043.03;6149537;28;20227;-71
2023/07/08 05:30:55;;;;;;;5.05;2.63;;;;;;;20.89;63.31;102044.91;6145681;28;20249;-72
2023/07/08 05:34:16;;;;;;;2.47;2.28;;;;;;;20.96;63.30;102044.06;6144655;28;20266;-71
2023/07/08 05:37:39;;;;;;;3.42;2.78;;;;;;;21.20;63.13;102041.25;6146728;28;20238;-71
2023/07/08 05:41:00;;;;;;;3.05;2.78;;;;;;;21.12;62.56;102046.78;6124916;28;20233;-71
2023/07/08 05:44:22;;;;;;;4.07;3.20;;;;;;;21.32;62.14;102042.56;6142136;28;20239;-72
2023/07/08 05:47:43;;;;;;;3.08;2.13;;;;;;;21.59;61.79;102051.41;6128757;28;20227;-71
2023/07/08 05:51:04;;;;;;;2.75;1.90;;;;;;;21.77;61.40;102044.59;6135835;28;20242;-71
2023/07/08 05:54:26;;;;;;;2.75;2.22;;;;;;;21.73;60.76;102045.13;6134587;28;20321;-71
2023/07/08 05:57:46;;;;;;;2.75;2.42;;;;;;;21.94;60.96;102037.16;6145287;28;20680;-71
2023/07/08 06:01:07;;;;;;;2.67;1.98;;;;;;;21.91;60.03;102038.34;6128235;28;20698;-71
2023/07/08 06:04:29;;;;;;;2.97;2.35;;;;;;;21.81;59.49;102039.59;6138367;28;20325;-71
2023/07/08 06:07:50;;;;;;;1.95;1.73;;;;;;;22.00;60.26;102036.41;6133583;28;20711;-71
2023/07/08 06:11:12;;;;;;;5.82;2.20;;;;;;;22.11;59.43;102036.00;6143506;28;20603;-71
2023/07/08 06:14:33;;;;;;;2.67;2.47;;;;;;;22.20;58.89;102044.00;6131477;28;20285;-72
2023/07/08 06:17:54;;;;;;;3.97;2.40;;;;;;;22.12;58.86;102041.31;6132043;28;20543;-71
2023/07/08 06:21:14;;;;;;;4.97;2.47;;;;;;;22.14;59.72;102050.22;6134161;28;20233;-75
2023/07/08 06:24:38;;;;;;;3.03;2.38;;;;;;;22.45;59.54;102049.28;6132956;28;20258;-74
2023/07/08 06:28:01;;;;;;;2.53;1.95;;;;;;;22.41;58.79;102042.44;6113475;28;20522;-74
2023/07/08 06:31:21;;;;;;;4.47;2.00;;;;;;;22.32;58.37;102041.66;6144519;28;20225;-73
2023/07/08 06:34:42;;;;;;;3.05;2.25;;;;;;;22.46;58.83;102042.75;6124281;28;20266;-71
2023/07/08 06:38:03;;;;;;;2.03;1.75;;;;;;;22.65;58.63;102043.13;6146577;28;20249;-71
2023/07/08 06:41:24;;;;;;;3.33;2.30;;;;;;;22.63;57.87;102044.34;6129029;28;20230;-71
2023/07/08 06:44:50;;;;;;;3.08;2.17;;;;;;;22.73;58.29;102040.31;6127132;28;20233;-71
2023/07/08 06:48:11;;;;;;;2.13;1.92;;;;;;;22.80;58.28;102040.41;6135730;28;20353;-72
2023/07/08 06:51:32;;;;;;;3.17;2.10;;;;;;;22.85;58.07;102033.28;6142058;28;20621;-70
2023/07/08 06:54:52;;;;;;;4.22;2.25;;;;;;;22.91;57.44;102034.44;6120232;28;20239;-72
2023/07/08 06:58:13;;;;;;;3.28;2.60;;;;;;;22.60;56.99;102040.06;6135089;28;20305;-67
2023/07/08 07:01:36;;;;;;;8.23;3.15;;;;;;;22.89;57.50;102039.25;6121816;28;20527;-68
2023/07/08 07:04:57;;;;;;;3.05;2.58;;;;;;;23.02;56.46;102037.59;6127704;28;20242;-67
2023/07/08 07:08:18;;;;;;;4.60;2.05;;;;;;;23.40;56.73;102037.50;6130699;28;20321;-67
2023/07/08 07:11:39;;;;;;;1.95;1.75;;;;;;;23.52;56.06;102031.31;6138314;28;20539;-67
2023/07/08 07:15:00;;;;;;;2.42;1.60;;;;;;;23.46;56.57;102025.72;6118346;28;20245;-66
2023/07/08 07:18:22;;;;;;;2.17;1.98;;;;;;;23.53;56.20;102016.50;6153680;28;20226;-66
2023/07/08 07:21:43;;;;;;;2.15;1.98;;;;;;;23.62;55.89;102018.09;6138072;28;20230;-67
2023/07/08 07:25:04;;;;;;;1.88;1.75;;;;;;;23.72;56.03;102017.78;6129207;28;20605;-67
2023/07/08 07:28:25;;;;;;;2.28;2.08;;;;;;;23.79;55.98;102022.34;6154956;28;20235;-67
2023/07/08 07:31:48;;;;;;;2.55;2.05;;;;;;;23.96;55.70;102022.94;6154788;28;20317;-66
2023/07/08 07:35:12;;;;;;;2.22;1.92;;;;;;;24.02;55.74;102027.66;6144194;28;20254;-67
2023/07/08 07:38:34;;;;;;;4.13;2.88;;;;;;;24.08;55.69;102018.63;6122416;28;20333;-67
2023/07/08 07:41:55;;;;;;;2.45;1.98;;;;;;;24.17;55.22;102022.97;6131255;28;20238;-66
2023/07/08 07:45:16;;;;;;;2.60;1.75;;;;;;;24.30;55.05;102020.31;6149767;28;20234;-67
2023/07/08 07:48:37;;;;;;;3.85;2.00;;;;;;;24.32;55.03;102018.22;6161507;28;20641;-69
2023/07/08 07:52:00;;;;;;;2.42;2.10;;;;;;;24.32;55.26;102006.38;6159895;28;20238;-69
2023/07/08 07:55:21;;;;;;;2.38;2.17;;;;;;;24.56;54.60;102016.97;6147287;28;20532;-67
2023/07/08 07:58:42;;;;;;;2.15;2.03;;;;;;;24.79;54.43;102013.97;6161628;28;20262;-67
2023/07/08 08:02:02;;;;;;;2.58;2.03;;;;;;;24.70;54.30;102013.25;6157646;28;20234;-67
2023/07/08 08:05:23;;;;;;;2.42;2.00;;;;;;;24.74;53.60;102011.81;6143223;28;20752;-67
2023/07/08 08:08:46;;;;;;;1.73;1.63;;;;;;;24.67;53.98;102008.16;6150464;28;20722;-67
2023/07/08 08:12:09;;;;;;;2.63;2.25;;;;;;;24.70;53.13;102004.97;6143630;28;20235;-68
2023/07/08 08:15:31;;;;;;;2.80;2.22;;;;;;;24.91;53.42;102002.19;6112602;28;20242;-67
2023/07/08 08:18:52;;;;;;;2.40;2.03;;;;;;;25.00;52.22;101998.22;6134817;28;20243;-68
2023/07/08 08:22:13;;;;;;;3.00;2.10;;;;;;;25.13;51.96;102003.81;6138708;28;20238;-67
2023/07/08 08:25:35;;;;;;;3.22;2.92;;;;;;;25.32;51.64;102010.50;6134931;28;20238;-67
2023/07/08 08:28:57;;;;;;;2.85;2.20;;;;;;;25.42;52.39;102012.91;6151271;28;20601;-68
2023/07/08 08:32:18;;;;;;;2.35;2.15;;;;;;;25.60;52.82;102013.19;6152939;28;20318;-67
2023/07/08 08:35:38;;;;;;;3.15;1.98;;;;;;;25.65;52.08;102005.13;6146100;28;20603;-67
2023/07/08 08:38:59;;;;;;;4.53;2.10;;;;;;;25.82;51.80;102007.34;6136713;28;20231;-68
2023/07/08 08:42:27;;;;;;;2.30;2.10;;;;;;;25.87;52.66;102009.44;6150669;28;20239;-67
2023/07/08 08:45:54;;;;;;;2.40;1.60;;;;;;;26.02;51.73;102007.34;6125457;28;20230;-67
2023/07/08 08:49:23;;;;;;;2.42;2.20;;;;;;;26.10;51.30;102012.72;6135065;28;20259;-68
2023/07/08 08:52:44;;;;;;;2.22;2.00;;;;;;;26.06;51.33;102009.50;6155787;28;20230;-69
2023/07/08 08:56:12;;;;;;;3.25;2.95;;;;;;;26.21;50.94;102014.88;6137247;28;20235;-67
2023/07/08 08:59:44;;;;;;;4.35;2.10;;;;;;;26.23;52.04;102009.97;6144115;28;20306;-68
2023/07/08 09:03:14;;;;;;;3.17;1.88;;;;;;;26.52;51.31;102001.25;6125890;28;20617;-67
2023/07/08 09:06:36;;;;;;;5.88;1.90;;;;;;;26.71;51.90;101997.63;6145148;28;20262;-67
2023/07/08 09:10:04;;;;;;;3.25;2.00;;;;;;;26.68;51.00;101995.28;6140163;28;20326;-67
2023/07/08 09:13:34;;;;;;;7.72;2.47;;;;;;;26.79;50.16;101996.59;6154157;28;20242;-67
2023/07/08 09:17:06;;;;;;;2.30;1.70;;;;;;;26.90;50.31;101988.50;6153011;28;20627;-67
2023/07/08 09:20:29;;;;;;;3.03;2.03;;;;;;;26.94;50.24;101986.13;6134524;28;20623;-67
2023/07/08 09:23:54;;;;;;;1.73;1.63;;;;;;;26.67;48.85;101999.13;6138529;28;20247;-66
2023/07/08 09:27:15;;;;;;;2.17;1.70;;;;;;;26.81;49.92;101997.22;6137809;28;20242;-67
2023/07/08 09:30:38;;;;;;;2.25;2.05;;;;;;;26.80;49.85;101999.16;6131597;28;20228;-67
2023/07/08 09:34:10;;;;;;;2.75;1.92;;;;;;;27.11;49.50;101986.50;6143464;28;20609;-69
2023/07/08 09:37:34;;;;;;;2.83;2.63;;;;;;;27.13;50.04;101987.13;6137293;28;20242;-67
2023/07/08 09:40:56;;;;;;;3.22;1.80;;;;;;;27.21;49.10;101992.44;6130495;28;20234;-67
2023/07/08 09:44:25;;;;;;;3.40;2.22;;;;;;;27.23;49.61;101979.22;6140582;28;20257;-67
2023/07/08 09:47:47;;;;;;;8.93;2.70;;;;;;;27.35;49.72;101983.91;6152286;28;21345;-66
2023/07/08 09:51:09;;;;;;;1.75;1.65;;;;;;;27.38;49.17;101982.59;6135120;28;20231;-67
2023/07/08 09:54:32;;;;;;;2.90;2.35;;;;;;;27.39;49.22;101979.63;6143259;28;20587;-67
2023/07/08 09:57:54;;;;;;;3.47;2.10;;;;;;;27.45;50.44;101981.50;6140042;28;20234;-66
2023/07/08 10:01:24;;;;;;;6.30;2.75;;;;;;;27.66;49.15;101975.63;6131503;28;20238;-68
2023/07/08 10:04:45;;;;;;;6.13;2.72;;;;;;;27.59;48.97;101980.38;6122388;28;20230;-67
2023/07/08 10:08:16;;;;;;;6.30;5.65;;;;;;;27.68;49.32;101978.22;6144258;28;20235;-66
2023/07/08 10:11:43;;;;;;;4.47;2.03;;;;;;;27.87;48.77;101968.06;6143081;28;20234;-67
2023/07/08 10:15:16;;;;;;;2.03;1.92;;;;;;;27.71;49.17;101961.13;6129632;28;20355;-67
2023/07/08 10:18:37;;;;;;;2.55;2.15;;;;;;;28.02;49.23;101965.84;6133609;28;20258;-66
2023/07/08 10:22:17;;;;;;;3.05;2.70;;;;;;;28.08;48.27;101965.81;6133095;28;20247;-67
2023/07/08 10:25:47;;;;;;;2.33;2.13;;;;;;;28.17;48.37;101967.25;6137701;28;20627;-68
2023/07/08 10:29:19;;;;;;;3.80;2.10;;;;;;;28.19;48.50;101967.00;6146415;28;20246;-67
2023/07/08 10:32:52;;;;;;;2.40;2.15;;;;;;;28.23;47.66;101965.47;6149367;28;20230;-67
2023/07/08 10:36:24;;;;;;;2.22;2.03;;;;;;;27.95;47.57;101963.13;6147863;28;20635;-66
2023/07/08 10:39:59;;;;;;;3.50;2.50;;;;;;;28.18;47.49;101946.72;6114923;28;20243;-67
2023/07/08 10:43:48;;;;;;;3.70;2.67;;;;;;;28.44;47.52;101951.22;6130513;28;20231;-67
2023/07/08 10:47:23;;;;;;;1.88;1.77;;;;;;;28.45;47.02;101962.06;6125758;28;20318;-67
2023/07/08 10:51:00;;;;;;;3.08;2.30;;;;;;;28.08;45.72;101954.72;6130066;28;20234;-75
2023/07/08 10:54:38;;;;;;;2.65;2.22;;;;;;;28.59;46.66;101950.91;6148423;28;20344;-71
2023/07/08 10:58:21;;;;;;;2.80;2.50;;;;;;;28.73;48.02;101950.53;6142306;28;20227;-75
2023/07/08 11:01:54;;;;;;;3.88;2.13;;;;;;;28.73;46.21;101960.78;6149357;28;20329;-67
2023/07/08 11:05:30;;;;;;;2.22;2.00;;;;;;;28.78;45.23;101952.63;6127339;28;20242;-67
2023/07/08 11:08:56;;;;;;;4.97;2.83;;;;;;;28.84;44.84;101946.16;6148941;28;20245;-67
2023/07/08 11:12:29;;;;;;;3.17;2.55;;;;;;;29.13;45.17;101939.81;6136439;28;21130;-68
2023/07/08 11:15:55;;;;;;;1.92;1.75;;;;;;;29.40;45.81;101948.69;6135818;28;20496;-67
2023/07/08 11:19:22;;;;;;;2.13;1.92;;;;;;;29.53;43.70;101943.81;6148500;28;20350;-67
2023/07/08 11:22:50;;;;;;;2.30;1.98;;;;;;;29.75;44.30;101931.13;6129021;28;20235;-68
2023/07/08 11:26:18;;;;;;;2.42;2.22;;;;;;;29.81;44.23;101941.28;6144651;28;20233;-68
2023/07/08 11:29:45;;;;;;;5.32;2.30;;;;;;;30.05;43.19;101945.00;6134907;28;20235;-67
2023/07/08 11:33:11;;;;;;;2.42;2.22;;;;;;;30.20;43.22;101941.75;6135743;28;20664;-68
2023/07/08 11:36:35;;;;;;;2.60;2.40;;;;;;;30.44;42.99;101938.78;6132925;28;20234;-68
2023/07/08 11:39:59;;;;;;;2.50;1.92;;;;;;;30.41;41.85;101939.28;6119838;28;20336;-69
2023/07/08 11:43:22;;;;;;;3.20;2.78;;;;;;;30.38;41.83;101931.41;6134593;28;20291;-68
2023/07/08 11:46:55;;;;;;;3.53;2.70;;;;;;;30.63;42.60;101933.94;6128787;28;20235;-70
2023/07/08 11:50:22;;;;;;;2.88;2.58;;;;;;;30.76;42.46;101926.19;6141600;28;20230;-69
2023/07/08 11:53:50;;;;;;;2.58;1.70;;;;;;;30.90;42.71;101920.38;6149049;28;20266;-70
2023/07/08 11:57:19;;;;;;;3.05;2.17;;;;;;;31.15;41.56;101919.00;6126352;28;20253;-70
2023/07/08 12:00:42;;;;;;;2.88;2.58;;;;;;;31.01;41.43;101912.00;6128807;28;20268;-70
2023/07/08 12:04:18;;;;;;;2.03;1.80;;;;;;;30.52;39.87;101918.94;6130673;28;20235;-69
2023/07/08 12:07:43;;;;;;;2.38;2.17;;;;;;;31.11;40.85;101914.16;6124786;28;20577;-68
2023/07/08 12:11:12;;;;;;;2.80;2.30;;;;;;;31.32;41.01;101913.47;6145054;28;20226;-67
2023/07/08 12:14:33;;;;;;;2.70;1.92;;;;;;;31.27;40.04;101905.03;6152751;28;20230;-69
2023/07/08 12:17:56;;;;;;;2.72;1.88;;;;;;;31.69;40.78;101903.66;6150233;28;20227;-68
2023/07/08 12:21:17;;;;;;;4.18;2.65;;;;;;;31.73;39.81;101904.84;6138482;28;20239;-67
2023/07/08 12:24:39;;;;;;;2.47;2.13;;;;;;;31.85;40.38;101902.00;6145988;28;20235;-69
2023/07/08 12:28:02;;;;;;;4.70;2.33;;;;;;;32.05;39.61;101907.94;6142468;28;20223;-69
2023/07/08 12:31:24;;;;;;;2.70;2.50;;;;;;;32.04;39.49;101903.47;6136925;28;20230;-68
2023/07/08 12:34:45;;;;;;;2.30;2.10;;;;;;;32.23;39.35;101891.78;6138096;28;20239;-69
2023/07/08 12:38:18;;;;;;;2.92;2.58;;;;;;;31.89;39.40;101890.09;6145887;28;20222;-69
2023/07/08 12:41:39;;;;;;;2.08;1.80;;;;;;;31.93;38.53;101894.09;6157392;28;20225;-68
2023/07/08 12:45:01;;;;;;;2.78;2.35;;;;;;;32.33;38.85;101902.28;6123535;28;20228;-67
2023/07/08 12:48:22;;;;;;;2.97;2.67;;;;;;;32.50;38.32;101893.94;6141618;28;20236;-66
2023/07/08 12:51:44;;;;;;;2.40;2.20;;;;;;;32.82;39.14;101884.59;6158764;28;20230;-68
2023/07/08 12:55:06;;;;;;;4.18;2.45;;;;;;;32.59;37.93;101884.00;6140491;28;20250;-68
2023/07/08 12:58:30;;;;;;;2.38;2.17;;;;;;;32.37;37.64;101880.28;6152928;28;20785;-69
2023/07/08 13:01:53;;;;;;;3.13;2.53;;;;;;;32.79;37.08;101881.50;6149319;28;20847;-69
2023/07/08 13:05:15;;;;;;;3.33;2.45;;;;;;;33.20;37.07;101880.09;6144590;28;20485;-68
2023/07/08 13:08:38;;;;;;;2.63;2.20;;;;;;;32.43;36.53;101882.03;6151367;28;20239;-69
2023/07/08 13:12:04;;;;;;;3.10;2.65;;;;;;;33.10;37.19;101877.16;6148858;28;20781;-69
2023/07/08 13:15:30;;;;;;;2.42;2.22;;;;;;;33.62;36.85;101869.97;6145212;28;20227;-69
2023/07/08 13:18:53;;;;;;;2.20;2.00;;;;;;;34.28;35.65;101871.38;6159791;28;20382;-68
2023/07/08 13:22:18;;;;;;;1.92;1.73;;;;;;;35.53;35.08;101870.41;6145167;28;20230;-68
2023/07/08 13:25:39;;;;;;;3.40;2.17;;;;;;;36.92;32.05;101869.75;6142330;28;20238;-68
2023/07/08 13:29:02;;;;;;;2.58;2.38;;;;;;;38.39;31.31;101860.03;6157166;28;20222;-69
2023/07/08 13:32:30;;;;;;;3.97;2.88;;;;;;;39.36;29.59;101855.78;6146504;28;20227;-69
2023/07/08 13:35:55;;;;;;;2.35;2.15;;;;;;;38.52;29.29;101856.50;6144422;28;20241;-69
2023/07/08 13:39:20;;;;;;;2.53;2.25;;;;;;;38.86;28.68;101862.06;6150736;28;20239;-68
2023/07/08 13:42:48;;;;;;;2.50;2.30;;;;;;;38.91;29.12;101856.34;6155767;28;20640;-69
2023/07/08 13:46:29;;;;;;;3.08;2.78;;;;;;;39.34;28.06;101857.22;6153796;28;20230;-69
2023/07/08 13:49:56;;;;;;;3.30;2.83;;;;;;;38.95;29.04;101852.63;6138493;28;20652;-68
2023/07/08 13:53:23;;;;;;;2.25;2.05;;;;;;;38.99;28.89;101855.72;6162825;28;20311;-69
2023/07/08 13:56:44;;;;;;;3.53;2.20;;;;;;;38.95;29.39;101851.81;6141706;28;20230;-68
2023/07/08 14:00:07;;;;;;;2.45;2.25;;;;;;;38.07;29.95;101849.31;6138876;28;20234;-68
2023/07/08 14:03:32;;;;;;;2.60;2.40;;;;;;;37.33;29.92;101846.78;6161899;28;20312;-69
2023/07/08 14:06:53;;;;;;;4.00;2.50;;;;;;;36.71;30.84;101836.06;6153075;28;20245;-68
2023/07/08 14:10:16;;;;;;;2.33;2.13;;;;;;;36.56;31.12;101852.13;6127358;28;20334;-67
2023/07/08 14:13:37;;;;;;;2.25;2.05;;;;;;;36.20;31.49;101844.84;6152111;28;20227;-69
2023/07/08 14:16:57;;;;;;;3.75;2.33;;;;;;;35.72;32.20;101846.25;6150525;28;20246;-69
2023/07/08 14:20:19;;;;;;;2.03;1.92;;;;;;;35.68;32.41;101839.50;6144019;28;20241;-67
2023/07/08 14:23:40;;;;;;;3.55;2.42;;;;;;;35.07;32.33;101841.34;6159062;28;20739;-68
2023/07/08 14:27:02;;;;;;;3.83;2.47;;;;;;;35.27;32.43;101844.19;6135706;28;20261;-69
2023/07/08 14:30:23;;;;;;;3.72;3.33;;;;;;;35.26;32.94;101836.88;6123320;28;20298;-68
2023/07/08 14:33:44;;;;;;;2.30;1.85;;;;;;;35.02;32.62;101833.75;6155052;28;20237;-69
2023/07/08 14:37:13;;;;;;;3.10;2.78;;;;;;;35.12;32.71;101833.78;6132713;28;20310;-69
2023/07/08 14:40:36;;;;;;;3.05;2.78;;;;;;;35.06;33.15;101820.88;6144833;28;20229;-69
2023/07/08 14:43:59;;;;;;;3.15;2.80;;;;;;;34.92;32.79;101830.03;6154127;28;20239;-68
2023/07/08 14:47:20;;;;;;;3.28;2.60;;;;;;;35.00;32.54;101832.34;6142552;28;20235;-68
2023/07/08 14:50:41;;;;;;;3.47;2.47;;;;;;;34.75;33.19;101823.78;6146428;28;20320;-68
2023/07/08 14:54:02;;;;;;;3.10;2.80;;;;;;;34.86;32.39;101819.94;6150000;28;20228;-68
2023/07/08 14:57:33;;;;;;;4.10;3.22;;;;;;;35.07;32.92;101828.16;6157307;28;20234;-69
2023/07/08 15:00:58;;;;;;;2.88;2.63;;;;;;;35.23;33.63;101817.81;6137024;28;20262;-69
2023/07/08 15:04:20;;;;;;;3.47;2.40;;;;;;;34.72;32.45;101815.91;6152170;28;20767;-67
2023/07/08 15:07:41;;;;;;;4.00;2.63;;;;;;;35.00;32.79;101815.50;6160900;28;20228;-69
2023/07/08 15:11:06;;;;;;;2.90;2.17;;;;;;;35.00;32.10;101813.56;6138450;28;20581;-69
2023/07/08 15:14:27;;;;;;;2.40;2.20;;;;;;;35.39;33.31;101808.31;6149569;28;20664;-69
2023/07/08 15:17:49;;;;;;;3.15;2.33;;;;;;;35.42;32.60;101810.56;6146358;28;20614;-69
2023/07/08 15:21:12;;;;;;;3.25;2.95;;;;;;;34.95;31.53;101812.66;6149812;28;20225;-69
2023/07/08 15:24:33;;;;;;;4.65;2.47;;;;;;;35.00;33.12;101815.50;6148234;28;20238;-68
2023/07/08 15:27:56;;;;;;;2.85;2.63;;;;;;;35.21;33.39;101817.25;6146083;28;20247;-68
2023/07/08 15:31:20;;;;;;;2.97;2.78;;;;;;;35.07;32.41;101818.91;6156382;28;20635;-68
2023/07/08 15:34:42;;;;;;;3.15;2.85;;;;;;;35.22;32.90;101811.38;6150113;28;20239;-68
2023/07/08 15:38:04;;;;;;;2.70;2.50;;;;;;;34.88;31.81;101804.50;6142512;28;20259;-67
2023/07/08 15:41:27;;;;;;;2.20;2.10;;;;;;;34.79;32.65;101808.09;6160062;28;20226;-69
2023/07/08 15:44:52;;;;;;;3.00;2.72;;;;;;;35.00;32.71;101804.31;6144236;28;20958;-69